sensor_id;sensor_type;location;lat;lon;timestamp;pressure;altitude;pressure_sealevel;temperature;humidity
76321;BME280;65132;52.088;5.402;2023-12-20T00:01:17;78573.94;;;-140.59;100.00
76321;BME280;65132;52.088;5.402;2023-12-20T00:03:43;78573.94;;;-140.59;100.00
76321;BME280;65132;52.088;5.402;2023-12-20T00:06:10;78578.09;;;-140.59;100.00
76321;BME280;65132;52.088;5.402;2023-12-20T00:08:36;78578.09;;;-140.59;100.00
76321;BME280;65132;52.088;5.402;2023-12-20T00:11:03;78578.09;;;-140.59;100.00
76321;BME280;65132;52.088;5.402;2023-12-20T00:13:29;78571.88;;;-140.59;100.00
76321;BME280;65132;52.088;5.402;2023-12-20T00:15:56;78578.09;;;-140.59;100.00
76321;BME280;65132;52.088;5.402;2023-12-20T00:18:23;78588.50;;;-140.59;100.00
76321;BME280;65132;52.088;5.402;2023-12-20T00:20:49;78607.19;;;-140.59;100.00
76321;BME280;65132;52.088;5.402;2023-12-20T00:23:16;78594.72;;;-140.59;100.00
76321;BME280;65132;52.088;5.402;2023-12-20T00:25:42;78590.56;;;-140.59;100.00
76321;BME280;65132;52.088;5.402;2023-12-20T00:28:09;78611.34;;;-140.59;100.00
76321;BME280;65132;52.088;5.402;2023-12-20T00:30:35;78613.44;;;-140.59;100.00
76321;BME280;65132;52.088;5.402;2023-12-20T00:33:02;78623.81;;;-140.59;100.00
76321;BME280;65132;52.088;5.402;2023-12-20T00:35:28;78627.97;;;-140.59;100.00
76321;BME280;65132;52.088;5.402;2023-12-20T00:37:55;78640.44;;;-140.59;100.00
76321;BME280;65132;52.088;5.402;2023-12-20T00:40:21;78648.75;;;-140.59;100.00
76321;BME280;65132;52.088;5.402;2023-12-20T00:42:48;78646.69;;;-140.59;100.00
76321;BME280;65132;52.088;5.402;2023-12-20T00:45:14;78644.59;;;-140.59;100.00
76321;BME280;65132;52.088;5.402;2023-12-20T00:47:41;78634.22;;;-140.59;100.00
76321;BME280;65132;52.088;5.402;2023-12-20T00:50:09;78642.53;;;-140.59;100.00
76321;BME280;65132;52.088;5.402;2023-12-20T00:52:36;78648.75;;;-140.59;100.00
76321;BME280;65132;52.088;5.402;2023-12-20T00:55:03;78644.59;;;-140.59;100.00
76321;BME280;65132;52.088;5.402;2023-12-20T00:57:30;78648.75;;;-140.59;100.00
76321;BME280;65132;52.088;5.402;2023-12-20T00:59:57;78661.22;;;-140.59;100.00
76321;BME280;65132;52.088;5.402;2023-12-20T01:02:23;78652.91;;;-140.59;100.00
76321;BME280;65132;52.088;5.402;2023-12-20T01:04:50;78661.22;;;-140.59;100.00
76321;BME280;65132;52.088;5.402;2023-12-20T01:07:16;78659.16;;;-140.59;100.00
76321;BME280;65132;52.088;5.402;2023-12-20T01:09:43;78669.53;;;-140.59;100.00
76321;BME280;65132;52.088;5.402;2023-12-20T01:12:09;78665.38;;;-140.59;100.00
76321;BME280;65132;52.088;5.402;2023-12-20T01:14:36;78663.31;;;-140.59;100.00
76321;BME280;65132;52.088;5.402;2023-12-20T01:17:02;78659.16;;;-140.59;100.00
76321;BME280;65132;52.088;5.402;2023-12-20T01:19:29;78663.31;;;-140.59;100.00
76321;BME280;65132;52.088;5.402;2023-12-20T01:21:55;78661.22;;;-140.59;100.00
76321;BME280;65132;52.088;5.402;2023-12-20T01:24:22;78659.16;;;-140.59;100.00
76321;BME280;65132;52.088;5.402;2023-12-20T01:26:48;78655.00;;;-140.59;100.00
76321;BME280;65132;52.088;5.402;2023-12-20T01:29:15;78659.16;;;-140.59;100.00
76321;BME280;65132;52.088;5.402;2023-12-20T01:31:41;78655.00;;;-140.59;100.00
76321;BME280;65132;52.088;5.402;2023-12-20T01:34:08;78661.22;;;-140.59;100.00
76321;BME280;65132;52.088;5.402;2023-12-20T01:36:35;78650.84;;;-140.59;100.00
76321;BME280;65132;52.088;5.402;2023-12-20T01:39:01;78652.91;;;-140.59;100.00
76321;BME280;65132;52.088;5.402;2023-12-20T01:41:31;78642.53;;;-140.59;100.00
76321;BME280;65132;52.088;5.402;2023-12-20T01:43:57;78630.06;;;-140.59;100.00
76321;BME280;65132;52.088;5.402;2023-12-20T01:46:24;78623.81;;;-140.59;100.00
76321;BME280;65132;52.088;5.402;2023-12-20T01:48:51;78615.50;;;-140.59;100.00
76321;BME280;65132;52.088;5.402;2023-12-20T01:51:18;78619.66;;;-140.59;100.00
76321;BME280;65132;52.088;5.402;2023-12-20T01:53:46;78619.66;;;-140.59;100.00
76321;BME280;65132;52.088;5.402;2023-12-20T01:56:16;78607.19;;;-140.59;100.00
76321;BME280;65132;52.088;5.402;2023-12-20T01:58:54;78600.97;;;-140.59;100.00
76321;BME280;65132;52.088;5.402;2023-12-20T02:01:24;78613.44;;;-140.59;100.00
76321;BME280;65132;52.088;5.402;2023-12-20T02:03:51;78605.13;;;-140.59;100.00
76321;BME280;65132;52.088;5.402;2023-12-20T02:06:18;78603.03;;;-140.59;100.00
76321;BME280;65132;52.088;5.402;2023-12-20T02:08:45;78600.97;;;-140.59;100.00
76321;BME280;65132;52.088;5.402;2023-12-20T02:11:11;78598.88;;;-140.59;100.00
76321;BME280;65132;52.088;5.402;2023-12-20T02:13:38;78594.72;;;-140.59;100.00
76321;BME280;65132;52.088;5.402;2023-12-20T02:16:04;78598.88;;;-140.59;100.00
76321;BME280;65132;52.088;5.402;2023-12-20T02:18:31;78600.97;;;-140.59;100.00
76321;BME280;65132;52.088;5.402;2023-12-20T02:20:57;78586.41;;;-140.59;100.00
76321;BME280;65132;52.088;5.402;2023-12-20T02:23:24;78588.50;;;-140.59;100.00
76321;BME280;65132;52.088;5.402;2023-12-20T02:25:50;78576.03;;;-140.59;100.00
76321;BME280;65132;52.088;5.402;2023-12-20T02:28:16;78573.94;;;-140.59;100.00
76321;BME280;65132;52.088;5.402;2023-12-20T02:30:44;78557.31;;;-140.59;100.00
76321;BME280;65132;52.088;5.402;2023-12-20T02:33:12;78563.56;;;-140.59;100.00
76321;BME280;65132;52.088;5.402;2023-12-20T02:35:38;78561.47;;;-140.59;100.00
76321;BME280;65132;52.088;5.402;2023-12-20T02:38:04;78559.41;;;-140.59;100.00
76321;BME280;65132;52.088;5.402;2023-12-20T02:40:32;78561.47;;;-140.59;100.00
76321;BME280;65132;52.088;5.402;2023-12-20T02:42:58;78555.25;;;-140.59;100.00
76321;BME280;65132;52.088;5.402;2023-12-20T02:45:26;78549.00;;;-140.59;100.00
76321;BME280;65132;52.088;5.402;2023-12-20T02:47:52;78530.31;;;-140.59;100.00
76321;BME280;65132;52.088;5.402;2023-12-20T02:50:19;78538.63;;;-140.59;100.00
76321;BME280;65132;52.088;5.402;2023-12-20T02:52:45;78534.47;;;-140.59;100.00
76321;BME280;65132;52.088;5.402;2023-12-20T02:55:12;78534.47;;;-140.59;100.00
76321;BME280;65132;52.088;5.402;2023-12-20T02:57:38;78526.16;;;-140.59;100.00
76321;BME280;65132;52.088;5.402;2023-12-20T03:00:05;78524.06;;;-140.59;100.00
76321;BME280;65132;52.088;5.402;2023-12-20T03:02:35;78522.00;;;-140.59;100.00
76321;BME280;65132;52.088;5.402;2023-12-20T03:05:01;78503.28;;;-140.59;100.00
76321;BME280;65132;52.088;5.402;2023-12-20T03:07:28;78503.28;;;-140.59;100.00
76321;BME280;65132;52.088;5.402;2023-12-20T03:09:54;78499.13;;;-140.59;100.00
76321;BME280;65132;52.088;5.402;2023-12-20T03:12:40;78513.69;;;-140.59;100.00
76321;BME280;65132;52.088;5.402;2023-12-20T03:15:07;78503.28;;;-140.59;100.00
76321;BME280;65132;52.088;5.402;2023-12-20T03:17:34;78511.59;;;-140.59;100.00
76321;BME280;65132;52.088;5.402;2023-12-20T03:20:02;78509.53;;;-140.59;100.00
76321;BME280;65132;52.088;5.402;2023-12-20T03:22:29;78509.53;;;-140.59;100.00
76321;BME280;65132;52.088;5.402;2023-12-20T03:24:55;78482.50;;;-140.59;100.00
76321;BME280;65132;52.088;5.402;2023-12-20T03:27:21;78476.25;;;-140.59;100.00
76321;BME280;65132;52.088;5.402;2023-12-20T03:29:48;78474.19;;;-140.59;100.00
76321;BME280;65132;52.088;5.402;2023-12-20T03:32:14;78478.34;;;-140.59;100.00
76321;BME280;65132;52.088;5.402;2023-12-20T03:34:41;78476.25;;;-140.59;100.00
76321;BME280;65132;52.088;5.402;2023-12-20T03:37:07;78488.75;;;-140.59;100.00
76321;BME280;65132;52.088;5.402;2023-12-20T03:39:34;78486.66;;;-140.59;100.00
76321;BME280;65132;52.088;5.402;2023-12-20T03:42:00;78492.91;;;-140.59;100.00
76321;BME280;65132;52.088;5.402;2023-12-20T03:44:27;78499.13;;;-140.59;100.00
76321;BME280;65132;52.088;5.402;2023-12-20T03:46:53;78492.91;;;-140.59;100.00
76321;BME280;65132;52.088;5.402;2023-12-20T03:49:20;78501.22;;;-140.59;100.00
76321;BME280;65132;52.088;5.402;2023-12-20T03:51:46;78501.22;;;-140.59;100.00
76321;BME280;65132;52.088;5.402;2023-12-20T03:54:13;78476.25;;;-140.59;100.00
76321;BME280;65132;52.088;5.402;2023-12-20T03:56:39;78478.34;;;-140.59;100.00
76321;BME280;65132;52.088;5.402;2023-12-20T03:59:05;78470.03;;;-140.59;100.00
76321;BME280;65132;52.088;5.402;2023-12-20T04:01:32;78470.03;;;-140.59;100.00
76321;BME280;65132;52.088;5.402;2023-12-20T04:03:58;78482.50;;;-140.59;100.00
76321;BME280;65132;52.088;5.402;2023-12-20T04:06:25;78470.03;;;-140.59;100.00
76321;BME280;65132;52.088;5.402;2023-12-20T04:08:51;78474.19;;;-140.59;100.00
76321;BME280;65132;52.088;5.402;2023-12-20T04:11:18;78465.88;;;-140.59;100.00
76321;BME280;65132;52.088;5.402;2023-12-20T04:13:44;78451.31;;;-140.59;100.00
76321;BME280;65132;52.088;5.402;2023-12-20T04:16:11;78453.41;;;-140.59;100.00
76321;BME280;65132;52.088;5.402;2023-12-20T04:18:37;78443.00;;;-140.59;100.00
76321;BME280;65132;52.088;5.402;2023-12-20T04:21:06;78438.84;;;-140.59;100.00
76321;BME280;65132;52.088;5.402;2023-12-20T04:23:32;78438.84;;;-140.59;100.00
76321;BME280;65132;52.088;5.402;2023-12-20T04:25:58;78436.78;;;-140.59;100.00
76321;BME280;65132;52.088;5.402;2023-12-20T04:28:25;78438.84;;;-140.59;100.00
76321;BME280;65132;52.088;5.402;2023-12-20T04:30:51;78440.94;;;-140.59;100.00
76321;BME280;65132;52.088;5.402;2023-12-20T04:33:20;78436.78;;;-140.59;100.00
76321;BME280;65132;52.088;5.402;2023-12-20T04:35:47;78434.69;;;-140.59;100.00
76321;BME280;65132;52.088;5.402;2023-12-20T04:38:13;78443.00;;;-140.59;100.00
76321;BME280;65132;52.088;5.402;2023-12-20T04:40:40;78424.31;;;-140.59;100.00
76321;BME280;65132;52.088;5.402;2023-12-20T04:43:07;78424.31;;;-140.59;100.00
76321;BME280;65132;52.088;5.402;2023-12-20T04:45:34;78416.00;;;-140.59;100.00
76321;BME280;65132;52.088;5.402;2023-12-20T04:48:01;78407.69;;;-140.59;100.00
76321;BME280;65132;52.088;5.402;2023-12-20T04:50:28;78397.28;;;-140.59;100.00
76321;BME280;65132;52.088;5.402;2023-12-20T04:52:54;78397.28;;;-140.59;100.00
76321;BME280;65132;52.088;5.402;2023-12-20T04:55:21;78388.97;;;-140.59;100.00
76321;BME280;65132;52.088;5.402;2023-12-20T04:57:47;78395.22;;;-140.59;100.00
76321;BME280;65132;52.088;5.402;2023-12-20T05:00:14;78382.75;;;-140.59;100.00
76321;BME280;65132;52.088;5.402;2023-12-20T05:02:41;78384.81;;;-140.59;100.00
76321;BME280;65132;52.088;5.402;2023-12-20T05:05:07;78376.50;;;-140.59;100.00
76321;BME280;65132;52.088;5.402;2023-12-20T05:07:34;78376.50;;;-140.59;100.00
76321;BME280;65132;52.088;5.402;2023-12-20T05:10:02;78372.34;;;-140.59;100.00
76321;BME280;65132;52.088;5.402;2023-12-20T05:12:30;78370.28;;;-140.59;100.00
76321;BME280;65132;52.088;5.402;2023-12-20T05:14:57;78374.44;;;-140.59;100.00
76321;BME280;65132;52.088;5.402;2023-12-20T05:17:24;78376.50;;;-140.59;100.00
76321;BME280;65132;52.088;5.402;2023-12-20T05:19:50;78378.59;;;-140.59;100.00
76321;BME280;65132;52.088;5.402;2023-12-20T05:22:18;78372.34;;;-140.59;100.00
76321;BME280;65132;52.088;5.402;2023-12-20T05:24:45;78368.19;;;-140.59;100.00
76321;BME280;65132;52.088;5.402;2023-12-20T05:27:12;78366.13;;;-140.59;100.00
76321;BME280;65132;52.088;5.402;2023-12-20T05:29:38;78364.03;;;-140.59;100.00
76321;BME280;65132;52.088;5.402;2023-12-20T05:32:05;78353.66;;;-140.59;100.00
76321;BME280;65132;52.088;5.402;2023-12-20T05:34:32;78364.03;;;-140.59;100.00
76321;BME280;65132;52.088;5.402;2023-12-20T05:36:58;78364.03;;;-140.59;100.00
76321;BME280;65132;52.088;5.402;2023-12-20T05:39:25;78364.03;;;-140.59;100.00
76321;BME280;65132;52.088;5.402;2023-12-20T05:41:51;78374.44;;;-140.59;100.00
76321;BME280;65132;52.088;5.402;2023-12-20T05:44:18;78357.81;;;-140.59;100.00
76321;BME280;65132;52.088;5.402;2023-12-20T05:46:44;78357.81;;;-140.59;100.00
76321;BME280;65132;52.088;5.402;2023-12-20T05:49:11;78351.56;;;-140.59;100.00
76321;BME280;65132;52.088;5.402;2023-12-20T05:51:37;78353.66;;;-140.59;100.00
76321;BME280;65132;52.088;5.402;2023-12-20T05:54:04;78349.50;;;-140.59;100.00
76321;BME280;65132;52.088;5.402;2023-12-20T05:56:30;78364.03;;;-140.59;100.00
76321;BME280;65132;52.088;5.402;2023-12-20T05:58:57;78349.50;;;-140.59;100.00
76321;BME280;65132;52.088;5.402;2023-12-20T06:01:23;78355.72;;;-140.59;100.00
76321;BME280;65132;52.088;5.402;2023-12-20T06:03:50;78349.50;;;-140.59;100.00
76321;BME280;65132;52.088;5.402;2023-12-20T06:06:19;78345.34;;;-140.59;100.00
76321;BME280;65132;52.088;5.402;2023-12-20T06:08:45;78349.50;;;-140.59;100.00
76321;BME280;65132;52.088;5.402;2023-12-20T06:11:11;78349.50;;;-140.59;100.00
76321;BME280;65132;52.088;5.402;2023-12-20T06:13:38;78351.56;;;-140.59;100.00
76321;BME280;65132;52.088;5.402;2023-12-20T06:16:05;78343.25;;;-140.59;100.00
76321;BME280;65132;52.088;5.402;2023-12-20T06:18:32;78345.34;;;-140.59;100.00
76321;BME280;65132;52.088;5.402;2023-12-20T06:20:59;78343.25;;;-140.59;100.00
76321;BME280;65132;52.088;5.402;2023-12-20T06:23:25;78337.03;;;-140.59;100.00
76321;BME280;65132;52.088;5.402;2023-12-20T06:25:52;78328.72;;;-140.59;100.00
76321;BME280;65132;52.088;5.402;2023-12-20T06:28:18;78328.72;;;-140.59;100.00
76321;BME280;65132;52.088;5.402;2023-12-20T06:30:45;78328.72;;;-140.59;100.00
76321;BME280;65132;52.088;5.402;2023-12-20T06:33:12;78328.72;;;-140.59;100.00
76321;BME280;65132;52.088;5.402;2023-12-20T06:35:38;78330.78;;;-140.59;100.00
76321;BME280;65132;52.088;5.402;2023-12-20T06:38:07;78320.41;;;-140.59;100.00
76321;BME280;65132;52.088;5.402;2023-12-20T06:40:33;78320.41;;;-140.59;100.00
76321;BME280;65132;52.088;5.402;2023-12-20T06:43:00;78324.56;;;-140.59;100.00
76321;BME280;65132;52.088;5.402;2023-12-20T06:45:41;78324.56;;;-140.59;100.00
76321;BME280;65132;52.088;5.402;2023-12-20T06:48:08;78328.72;;;-140.59;100.00
76321;BME280;65132;52.088;5.402;2023-12-20T06:50:34;78334.94;;;-140.59;100.00
76321;BME280;65132;52.088;5.402;2023-12-20T06:53:01;78332.88;;;-140.59;100.00
76321;BME280;65132;52.088;5.402;2023-12-20T06:55:27;78332.88;;;-140.59;100.00
76321;BME280;65132;52.088;5.402;2023-12-20T06:57:54;78316.25;;;-140.59;100.00
76321;BME280;65132;52.088;5.402;2023-12-20T07:00:20;78326.63;;;-140.59;100.00
76321;BME280;65132;52.088;5.402;2023-12-20T07:02:47;78322.47;;;-140.59;100.00
76321;BME280;65132;52.088;5.402;2023-12-20T07:05:16;78324.56;;;-140.59;100.00
76321;BME280;65132;52.088;5.402;2023-12-20T07:07:43;78324.56;;;-140.59;100.00
76321;BME280;65132;52.088;5.402;2023-12-20T07:10:10;78328.72;;;-140.59;100.00
76321;BME280;65132;52.088;5.402;2023-12-20T07:12:36;78326.63;;;-140.59;100.00
76321;BME280;65132;52.088;5.402;2023-12-20T07:15:03;78324.56;;;-140.59;100.00
76321;BME280;65132;52.088;5.402;2023-12-20T07:17:30;78320.41;;;-140.59;100.00
76321;BME280;65132;52.088;5.402;2023-12-20T07:19:56;78316.25;;;-140.59;100.00
76321;BME280;65132;52.088;5.402;2023-12-20T07:22:23;78314.16;;;-140.59;100.00
76321;BME280;65132;52.088;5.402;2023-12-20T07:24:49;78301.69;;;-140.59;100.00
76321;BME280;65132;52.088;5.402;2023-12-20T07:27:16;78293.38;;;-140.59;100.00
76321;BME280;65132;52.088;5.402;2023-12-20T07:29:43;78293.38;;;-140.59;100.00
76321;BME280;65132;52.088;5.402;2023-12-20T07:32:09;78291.31;;;-140.59;100.00
76321;BME280;65132;52.088;5.402;2023-12-20T07:34:36;78295.47;;;-140.59;100.00
76321;BME280;65132;52.088;5.402;2023-12-20T07:37:03;78295.47;;;-140.59;100.00
76321;BME280;65132;52.088;5.402;2023-12-20T07:39:30;78287.16;;;-140.59;100.00
76321;BME280;65132;52.088;5.402;2023-12-20T07:41:56;78285.06;;;-140.59;100.00
76321;BME280;65132;52.088;5.402;2023-12-20T07:44:22;78274.69;;;-140.59;100.00
76321;BME280;65132;52.088;5.402;2023-12-20T07:46:49;78289.22;;;-140.59;100.00
76321;BME280;65132;52.088;5.402;2023-12-20T07:49:15;78278.84;;;-140.59;100.00
76321;BME280;65132;52.088;5.402;2023-12-20T07:51:42;78287.16;;;-140.59;100.00
76321;BME280;65132;52.088;5.402;2023-12-20T07:54:08;78289.22;;;-140.59;100.00
76321;BME280;65132;52.088;5.402;2023-12-20T07:56:35;78299.63;;;-140.59;100.00
76321;BME280;65132;52.088;5.402;2023-12-20T07:59:01;78291.31;;;-140.59;100.00
76321;BME280;65132;52.088;5.402;2023-12-20T08:01:28;78295.47;;;-140.59;100.00
76321;BME280;65132;52.088;5.402;2023-12-20T08:03:54;78287.16;;;-140.59;100.00
76321;BME280;65132;52.088;5.402;2023-12-20T08:06:21;78297.53;;;-140.59;100.00
76321;BME280;65132;52.088;5.402;2023-12-20T08:08:48;78293.38;;;-140.59;100.00
76321;BME280;65132;52.088;5.402;2023-12-20T08:11:26;78297.53;;;-140.59;100.00
76321;BME280;65132;52.088;5.402;2023-12-20T08:13:53;78293.38;;;-140.59;100.00
76321;BME280;65132;52.088;5.402;2023-12-20T08:16:19;78305.84;;;-140.59;100.00
76321;BME280;65132;52.088;5.402;2023-12-20T08:18:47;78301.69;;;-140.59;100.00
76321;BME280;65132;52.088;5.402;2023-12-20T08:21:14;78303.78;;;-140.59;100.00
76321;BME280;65132;52.088;5.402;2023-12-20T08:23:40;78293.38;;;-140.59;100.00
76321;BME280;65132;52.088;5.402;2023-12-20T08:26:07;78285.06;;;-140.59;100.00
76321;BME280;65132;52.088;5.402;2023-12-20T08:28:36;78287.16;;;-140.59;100.00
76321;BME280;65132;52.088;5.402;2023-12-20T08:31:03;78287.16;;;-140.59;100.00
76321;BME280;65132;52.088;5.402;2023-12-20T08:33:29;78280.91;;;-140.59;100.00
76321;BME280;65132;52.088;5.402;2023-12-20T08:35:56;78268.44;;;-140.59;100.00
76321;BME280;65132;52.088;5.402;2023-12-20T08:38:22;78285.06;;;-140.59;100.00
76321;BME280;65132;52.088;5.402;2023-12-20T08:40:49;78270.53;;;-140.59;100.00
76321;BME280;65132;52.088;5.402;2023-12-20T08:43:15;78266.38;;;-140.59;100.00
76321;BME280;65132;52.088;5.402;2023-12-20T08:45:42;78262.22;;;-140.59;100.00
76321;BME280;65132;52.088;5.402;2023-12-20T08:48:08;78262.22;;;-140.59;100.00
76321;BME280;65132;52.088;5.402;2023-12-20T08:50:35;78264.28;;;-140.59;100.00
76321;BME280;65132;52.088;5.402;2023-12-20T08:53:02;78253.91;;;-140.59;100.00
76321;BME280;65132;52.088;5.402;2023-12-20T08:55:29;78253.91;;;-140.59;100.00
76321;BME280;65132;52.088;5.402;2023-12-20T08:57:55;78266.38;;;-140.59;100.00
76321;BME280;65132;52.088;5.402;2023-12-20T09:00:22;78264.28;;;-140.59;100.00
76321;BME280;65132;52.088;5.402;2023-12-20T09:02:48;78264.28;;;-140.59;100.00
76321;BME280;65132;52.088;5.402;2023-12-20T09:05:15;78251.81;;;-140.59;100.00
76321;BME280;65132;52.088;5.402;2023-12-20T09:07:41;78258.06;;;-140.59;100.00
76321;BME280;65132;52.088;5.402;2023-12-20T09:10:08;78260.13;;;-140.59;100.00
76321;BME280;65132;52.088;5.402;2023-12-20T09:12:35;78268.44;;;-140.59;100.00
76321;BME280;65132;52.088;5.402;2023-12-20T09:15:01;78276.75;;;-140.59;100.00
76321;BME280;65132;52.088;5.402;2023-12-20T09:17:27;78268.44;;;-140.59;100.00
76321;BME280;65132;52.088;5.402;2023-12-20T09:19:54;78287.16;;;-140.59;100.00
76321;BME280;65132;52.088;5.402;2023-12-20T09:22:21;78270.53;;;-140.59;100.00
76321;BME280;65132;52.088;5.402;2023-12-20T09:24:47;78283.00;;;-140.59;100.00
76321;BME280;65132;52.088;5.402;2023-12-20T09:27:14;78272.59;;;-140.59;100.00
76321;BME280;65132;52.088;5.402;2023-12-20T09:29:40;78272.59;;;-140.59;100.00
76321;BME280;65132;52.088;5.402;2023-12-20T09:32:07;78255.97;;;-140.59;100.00
76321;BME280;65132;52.088;5.402;2023-12-20T09:34:34;78262.22;;;-140.59;100.00
76321;BME280;65132;52.088;5.402;2023-12-20T09:37:00;78251.81;;;-140.59;100.00
76321;BME280;65132;52.088;5.402;2023-12-20T09:39:27;78235.19;;;-140.59;100.00
76321;BME280;65132;52.088;5.402;2023-12-20T09:42:00;78218.56;;;-140.59;100.00
76321;BME280;65132;52.088;5.402;2023-12-20T09:44:27;78212.34;;;-140.59;100.00
76321;BME280;65132;52.088;5.402;2023-12-20T09:46:55;78222.72;;;-140.59;100.00
76321;BME280;65132;52.088;5.402;2023-12-20T09:49:22;78216.50;;;-140.59;100.00
76321;BME280;65132;52.088;5.402;2023-12-20T09:51:53;78212.34;;;-140.59;100.00
76321;BME280;65132;52.088;5.402;2023-12-20T09:54:21;78201.94;;;-140.59;100.00
76321;BME280;65132;52.088;5.402;2023-12-20T09:56:49;78191.56;;;-140.59;100.00
76321;BME280;65132;52.088;5.402;2023-12-20T09:59:16;78191.56;;;-140.59;100.00
76321;BME280;65132;52.088;5.402;2023-12-20T10:01:43;78172.84;;;-140.59;100.00
76321;BME280;65132;52.088;5.402;2023-12-20T10:04:12;78170.78;;;-140.59;100.00
76321;BME280;65132;52.088;5.402;2023-12-20T10:06:55;78174.94;;;-140.59;100.00
76321;BME280;65132;52.088;5.402;2023-12-20T10:09:21;78174.94;;;-140.59;100.00
76321;BME280;65132;52.088;5.402;2023-12-20T10:11:48;78166.63;;;-140.59;100.00
76321;BME280;65132;52.088;5.402;2023-12-20T10:14:16;78166.63;;;-140.59;100.00
76321;BME280;65132;52.088;5.402;2023-12-20T10:16:42;78162.47;;;-140.59;100.00
76321;BME280;65132;52.088;5.402;2023-12-20T10:19:09;78156.22;;;-140.59;100.00
76321;BME280;65132;52.088;5.402;2023-12-20T10:21:35;78162.47;;;-140.59;100.00
76321;BME280;65132;52.088;5.402;2023-12-20T10:24:02;78152.06;;;-140.59;100.00
76321;BME280;65132;52.088;5.402;2023-12-20T10:26:28;78152.06;;;-140.59;100.00
76321;BME280;65132;52.088;5.402;2023-12-20T10:29:04;78141.69;;;-140.59;100.00
76321;BME280;65132;52.088;5.402;2023-12-20T10:31:36;78135.44;;;-140.59;100.00
76321;BME280;65132;52.088;5.402;2023-12-20T10:34:03;78135.44;;;-140.59;100.00
76321;BME280;65132;52.088;5.402;2023-12-20T10:36:32;78137.53;;;-140.59;100.00
76321;BME280;65132;52.088;5.402;2023-12-20T10:38:59;78127.13;;;-140.59;100.00
76321;BME280;65132;52.088;5.402;2023-12-20T10:41:29;78127.13;;;-140.59;100.00
76321;BME280;65132;52.088;5.402;2023-12-20T10:44:00;78122.97;;;-140.59;100.00
76321;BME280;65132;52.088;5.402;2023-12-20T10:46:28;78114.66;;;-140.59;100.00
76321;BME280;65132;52.088;5.402;2023-12-20T10:48:56;78098.03;;;-140.59;100.00
76321;BME280;65132;52.088;5.402;2023-12-20T10:51:24;78093.88;;;-140.59;100.00
76321;BME280;65132;52.088;5.402;2023-12-20T10:53:53;78093.88;;;-140.59;100.00
76321;BME280;65132;52.088;5.402;2023-12-20T10:56:20;78093.88;;;-140.59;100.00
76321;BME280;65132;52.088;5.402;2023-12-20T10:58:47;78083.50;;;-140.59;100.00
76321;BME280;65132;52.088;5.402;2023-12-20T11:01:15;78073.09;;;-140.59;100.00
76321;BME280;65132;52.088;5.402;2023-12-20T11:03:48;78068.94;;;-140.59;100.00
76321;BME280;65132;52.088;5.402;2023-12-20T11:06:27;78046.09;;;-140.59;100.00
76321;BME280;65132;52.088;5.402;2023-12-20T11:12:01;77994.16;;;-140.59;100.00
76321;BME280;65132;52.088;5.402;2023-12-20T11:14:49;77985.84;;;-140.59;100.00
76321;BME280;65132;52.088;5.402;2023-12-20T11:17:17;77977.53;;;-140.59;100.00
76321;BME280;65132;52.088;5.402;2023-12-20T11:22:26;77944.28;;;-140.59;100.00
76321;BME280;65132;52.088;5.402;2023-12-20T11:24:53;77929.72;;;-140.59;100.00
76321;BME280;65132;52.088;5.402;2023-12-20T11:27:21;77962.97;;;-140.59;100.00
76321;BME280;65132;52.088;5.402;2023-12-20T11:29:51;77973.38;;;-140.59;100.00
76321;BME280;65132;52.088;5.402;2023-12-20T11:34:51;77977.53;;;-140.59;100.00
76321;BME280;65132;52.088;5.402;2023-12-20T11:37:20;77962.97;;;-140.59;100.00
76321;BME280;65132;52.088;5.402;2023-12-20T11:40:00;77960.91;;;-140.59;100.00
76321;BME280;65132;52.088;5.402;2023-12-20T11:42:39;77962.97;;;-140.59;100.00
76321;BME280;65132;52.088;5.402;2023-12-20T11:45:13;77973.38;;;-140.59;100.00
76321;BME280;65132;52.088;5.402;2023-12-20T11:47:40;77962.97;;;-140.59;100.00
76321;BME280;65132;52.088;5.402;2023-12-20T11:50:08;77948.44;;;-140.59;100.00
76321;BME280;65132;52.088;5.402;2023-12-20T11:52:35;77952.59;;;-140.59;100.00
76321;BME280;65132;52.088;5.402;2023-12-20T11:55:03;77950.50;;;-140.59;100.00
76321;BME280;65132;52.088;5.402;2023-12-20T11:57:31;77965.06;;;-140.59;100.00
76321;BME280;65132;52.088;5.402;2023-12-20T11:59:57;77946.34;;;-140.59;100.00
76321;BME280;65132;52.088;5.402;2023-12-20T12:02:24;77942.19;;;-140.59;100.00
76321;BME280;65132;52.088;5.402;2023-12-20T12:04:50;77960.91;;;-140.59;100.00
76321;BME280;65132;52.088;5.402;2023-12-20T12:07:17;77954.66;;;-140.59;100.00
76321;BME280;65132;52.088;5.402;2023-12-20T12:09:46;77965.06;;;-140.59;100.00
76321;BME280;65132;52.088;5.402;2023-12-20T12:12:14;77975.44;;;-140.59;100.00
76321;BME280;65132;52.088;5.402;2023-12-20T12:14:41;77983.75;;;-140.59;100.00
76321;BME280;65132;52.088;5.402;2023-12-20T12:17:11;77996.22;;;-140.59;100.00
76321;BME280;65132;52.088;5.402;2023-12-20T12:19:38;77992.06;;;-140.59;100.00
76321;BME280;65132;52.088;5.402;2023-12-20T12:22:10;78004.53;;;-140.59;100.00
76321;BME280;65132;52.088;5.402;2023-12-20T12:24:41;77998.31;;;-140.59;100.00
76321;BME280;65132;52.088;5.402;2023-12-20T12:27:08;77985.84;;;-140.59;100.00
76321;BME280;65132;52.088;5.402;2023-12-20T12:29:35;77975.44;;;-140.59;100.00
76321;BME280;65132;52.088;5.402;2023-12-20T12:32:09;77977.53;;;-140.59;100.00
76321;BME280;65132;52.088;5.402;2023-12-20T12:34:36;77965.06;;;-140.59;100.00
76321;BME280;65132;52.088;5.402;2023-12-20T12:37:06;77967.13;;;-140.59;100.00
76321;BME280;65132;52.088;5.402;2023-12-20T12:39:34;77965.06;;;-140.59;100.00